createdAt,value
2023-04-07T00:02:08.966Z,99452.66
2023-04-07T00:04:36.722Z,99452.81
2023-04-07T00:07:03.962Z,99449.31
2023-04-07T00:09:31.367Z,99455.19
2023-04-07T00:11:58.418Z,99455.25
2023-04-07T00:14:25.872Z,99456.22
2023-04-07T00:16:52.875Z,99453.31
2023-04-07T00:19:20.190Z,99461.34
2023-04-07T00:21:47.248Z,99462.25
2023-04-07T00:24:20.998Z,99463.84
2023-04-07T00:26:54.525Z,99462.16
2023-04-07T00:29:21.751Z,99466.59
2023-04-07T00:31:49.365Z,99457.91
2023-04-07T00:34:16.603Z,99460.41
2023-04-07T00:36:43.695Z,99463.59
2023-04-07T00:39:11.070Z,99461.75
2023-04-07T00:41:38.116Z,99464.69
2023-04-07T00:44:05.572Z,99467.16
2023-04-07T00:46:32.818Z,99465.28
2023-04-07T00:49:01.140Z,99468.69
2023-04-07T00:51:28.788Z,99470.44
2023-04-07T00:53:56.771Z,99479.22
2023-04-07T00:56:24.863Z,99474.81
2023-04-07T00:58:52.348Z,99476.59
2023-04-07T01:01:24.341Z,99483.41
2023-04-07T01:04:04.477Z,99473.84
2023-04-07T01:06:35.653Z,99481.69
2023-04-07T01:09:05.878Z,99487.91
2023-04-07T01:11:48.568Z,99481.78
2023-04-07T01:14:20.853Z,99487.19
2023-04-07T01:17:01.789Z,99490.75
2023-04-07T01:19:45.252Z,99502.31
2023-04-07T01:22:41.712Z,99500.47
2023-04-07T01:25:30.786Z,99509.34
2023-04-07T01:28:22.697Z,99505.28
2023-04-07T01:30:51.980Z,99511.47
2023-04-07T01:33:21.025Z,99513.34
2023-04-07T01:35:50.234Z,99519.44
2023-04-07T01:38:18.616Z,99521.22
2023-04-07T01:40:47.594Z,99524.91
2023-04-07T01:43:18.907Z,99526.56
2023-04-07T01:45:47.431Z,99533.72
2023-04-07T01:48:16.608Z,99529.47
2023-04-07T01:50:46.477Z,99531.91
2023-04-07T01:53:15.829Z,99538.00
2023-04-07T01:55:46.583Z,99540.59
2023-04-07T01:58:13.802Z,99536.25
2023-04-07T02:00:43.660Z,99534.56
2023-04-07T02:03:29.890Z,99539.69
2023-04-07T02:06:07.192Z,99538.06
2023-04-07T02:08:37.014Z,99546.78
2023-04-07T02:11:10.405Z,99545.75
2023-04-07T02:13:38.141Z,99544.03
2023-04-07T02:16:07.516Z,99543.06
2023-04-07T02:18:35.819Z,99545.59
2023-04-07T02:21:04.927Z,99541.31
2023-04-07T02:23:35.780Z,99546.56
2023-04-07T02:26:03.328Z,99545.63
2023-04-07T02:28:30.816Z,99546.41
2023-04-07T02:30:57.948Z,99550.84
2023-04-07T02:33:25.657Z,99550.81
2023-04-07T02:35:52.943Z,99552.59
2023-04-07T02:38:21.488Z,99557.03
2023-04-07T02:40:48.614Z,99562.28
2023-04-07T02:43:17.970Z,99565.94
2023-04-07T02:45:45.548Z,99566.06
2023-04-07T02:48:13.290Z,99563.56
2023-04-07T02:50:42.307Z,99571.94
2023-04-07T02:53:11.493Z,99573.53
2023-04-07T02:55:39.399Z,99575.22
2023-04-07T02:58:10.172Z,99565.91
2023-04-07T03:00:42.036Z,99573.19
2023-04-07T03:03:13.518Z,99574.59
2023-04-07T03:05:45.669Z,99583.00
2023-04-07T03:08:18.148Z,99584.38
2023-04-07T03:10:45.721Z,99589.09
2023-04-07T03:13:17.386Z,99596.38
2023-04-07T03:15:46.157Z,99600.34
2023-04-07T03:18:15.457Z,99604.13
2023-04-07T03:20:45.416Z,99606.00
2023-04-07T03:23:16.381Z,99613.38
2023-04-07T03:25:46.857Z,99615.22
2023-04-07T03:28:16.379Z,99615.41
2023-04-07T03:30:44.200Z,99624.25
2023-04-07T03:33:16.835Z,99623.53
2023-04-07T03:35:46.102Z,99627.25
2023-04-07T03:38:13.990Z,99629.06
2023-04-07T03:40:43.380Z,99630.00
2023-04-07T03:43:14.757Z,99641.38
2023-04-07T03:45:43.560Z,99639.63
2023-04-07T03:48:12.610Z,99643.06
2023-04-07T03:50:52.060Z,99643.91
2023-04-07T03:53:20.411Z,99648.16
2023-04-07T03:55:48.634Z,99649.81
2023-04-07T03:58:28.206Z,99665.44
2023-04-07T04:00:57.006Z,99669.75
2023-04-07T04:03:25.258Z,99665.47
2023-04-07T04:06:20.110Z,99663.69
2023-04-07T04:08:52.105Z,99671.34
2023-04-07T04:11:23.290Z,99677.44
2023-04-07T04:14:02.024Z,99679.16
2023-04-07T04:16:31.805Z,99687.91
2023-04-07T04:19:04.539Z,99685.38
2023-04-07T04:21:32.993Z,99686.13
2023-04-07T04:24:02.483Z,99691.28
2023-04-07T04:26:31.402Z,99691.09
2023-04-07T04:29:05.484Z,99688.44
2023-04-07T04:31:33.937Z,99693.63
2023-04-07T04:34:01.588Z,99693.44
2023-04-07T04:36:31.078Z,99694.25
2023-04-07T04:39:04.367Z,99701.16
2023-04-07T04:41:34.429Z,99700.31
2023-04-07T04:44:03.421Z,99706.25
2023-04-07T04:46:32.235Z,99715.63
2023-04-07T04:49:00.279Z,99710.81
2023-04-07T04:51:28.271Z,99711.13
2023-04-07T04:54:04.120Z,99723.06
2023-04-07T04:56:32.770Z,99724.16
2023-04-07T04:59:01.456Z,99723.56
2023-04-07T05:01:43.565Z,99735.44
2023-04-07T05:04:15.476Z,99732.28
2023-04-07T05:06:53.089Z,99736.91
2023-04-07T05:09:25.741Z,99744.88
2023-04-07T05:11:53.574Z,99737.84
2023-04-07T05:14:21.871Z,99746.91
2023-04-07T05:16:55.500Z,99752.34
2023-04-07T05:19:29.977Z,99747.06
2023-04-07T05:22:04.135Z,99755.75
2023-04-07T05:24:37.318Z,99755.41
2023-04-07T05:27:05.656Z,99750.16
2023-04-07T05:29:34.342Z,99753.53
2023-04-07T05:32:03.483Z,99748.19
2023-04-07T05:34:34.563Z,99754.09
2023-04-07T05:37:03.664Z,99753.78
2023-04-07T05:39:32.161Z,99756.00
2023-04-07T05:42:04.518Z,99760.22
2023-04-07T05:44:35.510Z,99752.63
2023-04-07T05:47:07.043Z,99763.91
2023-04-07T05:49:38.708Z,99757.19
2023-04-07T05:52:08.866Z,99767.91
2023-04-07T05:54:42.103Z,99770.28
2023-04-07T05:57:13.165Z,99772.44
2023-04-07T05:59:45.732Z,99770.09
2023-04-07T06:02:14.636Z,99767.06
2023-04-07T06:04:45.946Z,99772.50
2023-04-07T06:07:17.803Z,99780.72
2023-04-07T06:09:46.075Z,99783.97
2023-04-07T06:12:13.692Z,99771.00
2023-04-07T06:14:41.649Z,99774.13
2023-04-07T06:17:09.685Z,99777.09
2023-04-07T06:19:37.765Z,99786.44
2023-04-07T06:22:05.980Z,99781.09
2023-04-07T06:24:34.072Z,99781.59
2023-04-07T06:27:04.636Z,99780.72
2023-04-07T06:29:33.933Z,99785.59
2023-04-07T06:32:05.204Z,99794.75
2023-04-07T06:34:33.469Z,99789.53
2023-04-07T06:37:02.385Z,99785.03
2023-04-07T06:39:31.837Z,99783.59
2023-04-07T06:42:03.761Z,99792.19
2023-04-07T06:44:37.851Z,99799.78
2023-04-07T06:47:06.016Z,99793.94
2023-04-07T06:49:35.126Z,99804.31
2023-04-07T06:52:05.463Z,99799.59
2023-04-07T06:54:33.551Z,99802.44
2023-04-07T06:57:01.777Z,99801.59
2023-04-07T06:59:30.048Z,99802.47
2023-04-07T07:01:58.661Z,99803.31
2023-04-07T07:04:27.710Z,99813.34
2023-04-07T07:06:57.553Z,99802.34
2023-04-07T07:09:26.020Z,99819.06
2023-04-07T07:11:54.171Z,99807.31
2023-04-07T07:14:21.966Z,99815.75
2023-04-07T07:16:51.466Z,99814.63
2023-04-07T07:19:19.775Z,99816.97
2023-04-07T07:21:49.315Z,99813.81
2023-04-07T07:24:17.916Z,99816.94
2023-04-07T07:26:46.500Z,99805.41
2023-04-07T07:29:21.157Z,99813.44
2023-04-07T07:31:49.755Z,99818.25
2023-04-07T07:34:17.340Z,99820.28
2023-04-07T07:36:46.722Z,99814.78
2023-04-07T07:39:15.509Z,99817.19
2023-04-07T07:41:44.718Z,99819.00
2023-04-07T07:44:12.740Z,99810.34
2023-04-07T07:46:42.538Z,99822.63
2023-04-07T07:49:10.437Z,99815.69
2023-04-07T07:51:39.139Z,99822.50
2023-04-07T07:54:08.265Z,99825.56
2023-04-07T07:56:37.229Z,99824.31
2023-04-07T07:59:08.393Z,99831.41
2023-04-07T08:01:36.215Z,99825.59
2023-04-07T08:04:04.751Z,99836.41
2023-04-07T08:06:32.790Z,99838.97
2023-04-07T08:09:00.637Z,99835.03
2023-04-07T08:11:31.724Z,99829.59
2023-04-07T08:16:27.743Z,99837.94
2023-04-07T08:18:56.456Z,99838.69
2023-04-07T08:21:24.642Z,99839.03
2023-04-07T08:23:53.257Z,99841.06
2023-04-07T08:26:21.515Z,99836.66
2023-04-07T08:28:54.309Z,99831.88
2023-04-07T08:31:22.882Z,99838.91
2023-04-07T08:33:54.394Z,99833.13
2023-04-07T08:36:22.452Z,99835.03
2023-04-07T08:38:50.981Z,99835.84
2023-04-07T08:41:39.889Z,99837.38
2023-04-07T08:44:10.785Z,99852.63
2023-04-07T08:46:43.135Z,99837.69
2023-04-07T08:49:14.681Z,99847.53
2023-04-07T08:51:47.995Z,99849.56
2023-04-07T08:54:19.324Z,99845.00
2023-04-07T08:56:47.776Z,99836.63
2023-04-07T08:59:18.960Z,99844.19
2023-04-07T09:01:48.435Z,99844.59
2023-04-07T09:04:28.004Z,99839.31
2023-04-07T09:06:56.265Z,99845.66
2023-04-07T09:09:24.488Z,99842.44
2023-04-07T09:11:53.242Z,99844.63
2023-04-07T09:14:23.486Z,99849.09
2023-04-07T09:16:51.428Z,99843.97
2023-04-07T09:19:18.399Z,99845.16
2023-04-07T09:21:53.525Z,99836.53
2023-04-07T09:24:28.248Z,99844.34
2023-04-07T09:27:29.496Z,99854.38
2023-04-07T09:30:18.047Z,99848.63
2023-04-07T09:32:46.219Z,99848.41
2023-04-07T09:35:15.273Z,99855.78
2023-04-07T09:37:43.032Z,99858.72
2023-04-07T09:40:12.722Z,99860.97
2023-04-07T09:42:51.546Z,99861.88
2023-04-07T09:48:06.796Z,99865.97
2023-04-07T09:50:41.631Z,99868.91
2023-04-07T09:53:09.917Z,99866.56
2023-04-07T09:55:37.863Z,99875.25
2023-04-07T09:58:06.780Z,99870.81
2023-04-07T10:00:38.245Z,99880.22
2023-04-07T10:03:06.453Z,99871.03
2023-04-07T10:05:37.189Z,99875.91
2023-04-07T10:08:07.801Z,99872.84
2023-04-07T10:10:37.792Z,99873.81
2023-04-07T10:13:10.820Z,99863.94
2023-04-07T10:15:42.280Z,99862.72
2023-04-07T10:18:11.437Z,99862.81
2023-04-07T10:20:43.216Z,99862.25
2023-04-07T10:23:20.028Z,99865.69
2023-04-07T10:25:51.176Z,99869.13
2023-04-07T10:28:22.766Z,99861.47
2023-04-07T10:30:54.442Z,99875.00
2023-04-07T10:33:52.616Z,99868.75
2023-04-07T10:36:22.848Z,99867.72
2023-04-07T10:39:09.676Z,99870.34
2023-04-07T10:41:38.061Z,99870.50
2023-04-07T10:44:07.814Z,99868.13
2023-04-07T10:46:48.815Z,99865.84
2023-04-07T10:49:18.899Z,99867.78
2023-04-07T10:52:13.699Z,99872.44
2023-04-07T10:54:44.747Z,99880.03
2023-04-07T10:57:16.596Z,99880.63
2023-04-07T11:00:11.070Z,99874.25
2023-04-07T11:02:41.176Z,99878.38
2023-04-07T11:05:09.341Z,99880.78
2023-04-07T11:07:56.051Z,99878.16
2023-04-07T11:10:24.129Z,99871.97
2023-04-07T11:13:07.266Z,99880.47
2023-04-07T11:15:40.783Z,99879.44
2023-04-07T11:18:21.234Z,99883.16
2023-04-07T11:20:54.957Z,99879.34
2023-04-07T11:23:25.843Z,99881.03
2023-04-07T11:26:04.897Z,99882.09
2023-04-07T11:28:33.936Z,99882.59
2023-04-07T11:31:02.302Z,99876.22
2023-04-07T11:33:35.348Z,99885.09
2023-04-07T11:36:04.328Z,99882.78
2023-04-07T11:38:40.267Z,99884.47
2023-04-07T11:41:28.137Z,99880.44
2023-04-07T11:44:09.861Z,99885.69
2023-04-07T11:46:53.018Z,99884.81
2023-04-07T11:49:21.837Z,99878.06
2023-04-07T11:51:49.893Z,99881.81
2023-04-07T11:54:17.958Z,99865.25
2023-04-07T11:56:48.115Z,99863.72
2023-04-07T11:59:24.375Z,99862.41
2023-04-07T12:01:56.063Z,99853.41
2023-04-07T12:04:24.996Z,99854.00
2023-04-07T12:06:53.553Z,99851.41
2023-04-07T12:09:36.571Z,99842.56
2023-04-07T12:12:08.461Z,99832.28
2023-04-07T12:14:35.943Z,99846.28
2023-04-07T12:17:04.505Z,99836.75
2023-04-07T12:19:36.648Z,99837.50
2023-04-07T12:22:05.235Z,99837.50
2023-04-07T12:24:33.650Z,99838.78
2023-04-07T12:27:01.772Z,99841.94
2023-04-07T12:29:30.133Z,99840.34
2023-04-07T12:31:58.133Z,99837.19
2023-04-07T12:34:25.716Z,99834.47
2023-04-07T12:36:53.966Z,99836.19
2023-04-07T12:39:22.266Z,99834.56
2023-04-07T12:41:53.434Z,99827.59
2023-04-07T12:44:21.592Z,99840.53
2023-04-07T12:46:49.124Z,99821.00
2023-04-07T12:49:16.921Z,99826.19
2023-04-07T12:51:44.411Z,99822.44
2023-04-07T12:54:11.648Z,99828.75
2023-04-07T12:56:40.601Z,99827.47
2023-04-07T12:59:08.876Z,99820.84
2023-04-07T13:01:37.748Z,99827.38
2023-04-07T13:04:05.849Z,99829.03
2023-04-07T13:06:33.737Z,99829.72
2023-04-07T13:09:01.517Z,99823.56
2023-04-07T13:11:28.783Z,99822.97
2023-04-07T13:13:57.466Z,99824.03
2023-04-07T13:16:27.548Z,99820.59
2023-04-07T13:18:55.746Z,99828.19
2023-04-07T13:23:53.724Z,99834.59
2023-04-07T13:26:21.782Z,99830.84
2023-04-07T13:28:49.168Z,99824.03
2023-04-07T13:31:16.858Z,99823.59
2023-04-07T13:33:44.787Z,99830.69
2023-04-07T13:36:12.527Z,99831.81
2023-04-07T13:38:39.938Z,99831.56
2023-04-07T13:41:07.911Z,99835.34
2023-04-07T13:43:35.156Z,99838.66
2023-04-07T13:46:03.180Z,99836.47
2023-04-07T13:48:31.707Z,99835.72
2023-04-07T13:50:59.584Z,99830.16
2023-04-07T13:53:27.014Z,99831.94
2023-04-07T13:55:54.521Z,99832.09
2023-04-07T13:58:21.848Z,99831.66
2023-04-07T14:00:49.142Z,99831.63
2023-04-07T14:03:16.534Z,99827.47
2023-04-07T14:05:43.938Z,99830.13
2023-04-07T14:08:11.654Z,99826.19
2023-04-07T14:10:40.335Z,99822.66
2023-04-07T14:13:07.745Z,99827.56
2023-04-07T14:15:34.838Z,99826.72
2023-04-07T14:18:02.242Z,99821.59
2023-04-07T14:20:29.707Z,99836.09
2023-04-07T14:22:56.938Z,99838.44
2023-04-07T14:25:24.789Z,99837.19
2023-04-07T14:27:52.923Z,99835.69
2023-04-07T14:30:20.648Z,99836.72
2023-04-07T14:32:48.732Z,99843.81
2023-04-07T14:35:16.520Z,99836.91
2023-04-07T14:37:43.760Z,99846.53
2023-04-07T14:40:11.651Z,99846.75
2023-04-07T14:42:39.860Z,99838.66
2023-04-07T14:45:07.759Z,99836.13
2023-04-07T14:47:35.610Z,99844.84
2023-04-07T14:50:03.065Z,99856.16
2023-04-07T14:52:31.642Z,99848.22
2023-04-07T14:55:00.440Z,99851.38
2023-04-07T14:57:28.026Z,99852.78
2023-04-07T14:59:55.439Z,99850.88
2023-04-07T15:02:23.398Z,99854.72
2023-04-07T15:04:51.675Z,99852.25
2023-04-07T15:07:19.462Z,99852.75
2023-04-07T15:09:48.761Z,99853.31
2023-04-07T15:12:16.888Z,99864.34
2023-04-07T15:14:47.422Z,99863.66
2023-04-07T15:17:15.440Z,99865.72
2023-04-07T15:19:43.969Z,99863.47
2023-04-07T15:22:12.051Z,99869.75
2023-04-07T15:24:39.682Z,99869.75
2023-04-07T15:27:09.572Z,99868.69
2023-04-07T15:29:37.875Z,99869.22
2023-04-07T15:32:05.905Z,99868.13
2023-04-07T15:34:33.492Z,99867.31
2023-04-07T15:37:02.781Z,99879.91
2023-04-07T15:39:31.464Z,99880.00
2023-04-07T15:41:59.440Z,99882.69
2023-04-07T15:44:27.435Z,99872.72
2023-04-07T15:46:55.063Z,99872.22
2023-04-07T15:49:23.713Z,99874.53
2023-04-07T15:51:53.434Z,99883.78
2023-04-07T15:54:21.242Z,99878.09
2023-04-07T15:56:49.442Z,99880.94
2023-04-07T15:59:17.690Z,99882.22
2023-04-07T16:01:46.772Z,99880.72
2023-04-07T16:04:15.073Z,99887.34
2023-04-07T16:06:42.393Z,99884.06
2023-04-07T16:09:09.732Z,99887.03
2023-04-07T16:11:37.203Z,99889.84
2023-04-07T16:14:04.974Z,99887.25
2023-04-07T16:16:36.212Z,99894.56
2023-04-07T16:19:03.653Z,99897.28
2023-04-07T16:21:31.973Z,99884.16
2023-04-07T16:23:59.267Z,99899.41
2023-04-07T16:26:27.411Z,99905.81
2023-04-07T16:28:54.938Z,99896.59
2023-04-07T16:31:22.966Z,99900.81
2023-04-07T16:33:51.739Z,99900.59
2023-04-07T16:36:19.483Z,99901.38
2023-04-07T16:38:48.065Z,99904.22
2023-04-07T16:41:15.607Z,99916.53
2023-04-07T16:43:43.544Z,99911.28
2023-04-07T16:46:11.555Z,99921.09
2023-04-07T16:48:41.424Z,99920.28
2023-04-07T16:51:09.365Z,99927.41
2023-04-07T16:53:37.944Z,99922.97
2023-04-07T16:56:06.618Z,99932.66
2023-04-07T16:58:34.097Z,99941.38
2023-04-07T17:01:04.324Z,99941.34
2023-04-07T17:03:31.762Z,99945.63
2023-04-07T17:06:04.813Z,99941.97
2023-04-07T17:08:36.281Z,99948.84
2023-04-07T17:11:07.543Z,99946.88
2023-04-07T17:13:35.015Z,99958.91
2023-04-07T17:16:04.315Z,99963.84
2023-04-07T17:18:33.345Z,99963.47
2023-04-07T17:21:00.452Z,99970.06
2023-04-07T17:23:28.553Z,99969.56
2023-04-07T17:25:55.602Z,99962.88
2023-04-07T17:28:22.902Z,99972.94
2023-04-07T17:30:50.673Z,99979.44
2023-04-07T17:33:17.789Z,99976.34
2023-04-07T17:35:47.708Z,99985.41
2023-04-07T17:38:15.670Z,99983.84
2023-04-07T17:40:43.093Z,99980.59
2023-04-07T17:43:11.321Z,99986.03
2023-04-07T17:45:38.740Z,99994.97
2023-04-07T17:48:09.921Z,99996.81
2023-04-07T17:50:38.106Z,100002.88
2023-04-07T17:53:05.444Z,100007.13
2023-04-07T17:55:33.223Z,100003.50
2023-04-07T17:58:03.134Z,100007.72
2023-04-07T18:00:30.367Z,100009.38
2023-04-07T18:02:57.801Z,100014.53
2023-04-07T18:05:26.303Z,100008.25
2023-04-07T18:07:55.076Z,100022.25
2023-04-07T18:10:22.673Z,100023.25
2023-04-07T18:12:50.932Z,100024.94
2023-04-07T18:15:18.382Z,100029.28
2023-04-07T18:17:47.724Z,100028.38
2023-04-07T18:20:15.494Z,100027.50
2023-04-07T18:22:42.692Z,100029.13
2023-04-07T18:25:10.201Z,100034.31
2023-04-07T18:27:37.006Z,100035.97
2023-04-07T18:30:09.009Z,100044.59
2023-04-07T18:32:36.420Z,100037.47
2023-04-07T18:35:06.051Z,100045.06
2023-04-07T18:37:33.252Z,100038.50
2023-04-07T18:40:00.918Z,100046.94
2023-04-07T18:42:28.300Z,100048.38
2023-04-07T18:44:55.684Z,100049.81
2023-04-07T18:47:22.975Z,100053.97
2023-04-07T18:49:50.581Z,100045.94
2023-04-07T18:52:18.216Z,100049.22
2023-04-07T18:54:45.552Z,100042.00
2023-04-07T18:57:13.111Z,100048.91
2023-04-07T18:59:40.303Z,100054.09
2023-04-07T19:02:08.111Z,100058.47
2023-04-07T19:04:35.451Z,100054.03
2023-04-07T19:07:03.876Z,100057.59
2023-04-07T19:09:30.996Z,100054.09
2023-04-07T19:11:58.019Z,100056.84
2023-04-07T19:14:25.445Z,100055.22
2023-04-07T19:16:53.121Z,100057.09
2023-04-07T19:19:20.363Z,100053.81
2023-04-07T19:21:47.603Z,100055.69
2023-04-07T19:24:15.060Z,100056.72
2023-04-07T19:26:43.316Z,100055.06
2023-04-07T19:29:12.714Z,100058.75
2023-04-07T19:31:40.421Z,100064.13
2023-04-07T19:34:07.657Z,100057.16
2023-04-07T19:36:36.161Z,100051.97
2023-04-07T19:39:05.132Z,100048.56
2023-04-07T19:41:32.467Z,100051.22
2023-04-07T19:43:59.785Z,100048.66
2023-04-07T19:46:27.014Z,100046.94
2023-04-07T19:48:54.063Z,100054.81
2023-04-07T19:51:21.360Z,100054.81
2023-04-07T19:53:48.593Z,100060.09
2023-04-07T19:56:16.025Z,100055.75
2023-04-07T19:58:43.260Z,100052.16
2023-04-07T20:01:17.825Z,100048.66
2023-04-07T20:03:45.356Z,100052.16
2023-04-07T20:06:15.306Z,100054.81
2023-04-07T20:08:43.011Z,100054.91
2023-04-07T20:11:13.436Z,100064.53
2023-04-07T20:13:42.695Z,100056.53
2023-04-07T20:16:10.127Z,100056.53
2023-04-07T20:18:37.376Z,100052.91
2023-04-07T20:21:08.091Z,100062.47
2023-04-07T20:23:35.391Z,100061.53
2023-04-07T20:26:02.596Z,100058.00
2023-04-07T20:28:29.878Z,100059.75
2023-04-07T20:30:56.957Z,100072.94
2023-04-07T20:33:24.103Z,100058.84
2023-04-07T20:35:51.289Z,100060.59
2023-04-07T20:38:19.326Z,100062.34
2023-04-07T20:40:46.952Z,100056.09
2023-04-07T20:43:15.494Z,100055.22
2023-04-07T20:45:42.877Z,100051.72
2023-04-07T20:48:09.838Z,100049.03
2023-04-07T20:50:38.591Z,100046.47
2023-04-07T20:53:05.396Z,100055.25
2023-04-07T20:55:33.064Z,100048.34
2023-04-07T20:58:00.498Z,100055.50
2023-04-07T21:00:27.699Z,100054.84
2023-04-07T21:02:54.896Z,100052.47
2023-04-07T21:05:22.355Z,100057.09
2023-04-07T21:07:49.584Z,100052.09
2023-04-07T21:10:16.629Z,100054.06
2023-04-07T21:12:46.563Z,100054.31
2023-04-07T21:15:13.494Z,100051.78
2023-04-07T21:17:41.007Z,100052.75
2023-04-07T21:20:08.768Z,100049.19
2023-04-07T21:22:36.025Z,100049.97
2023-04-07T21:25:07.207Z,100048.19
2023-04-07T21:27:36.047Z,100052.53
2023-04-07T21:30:06.914Z,100054.19
2023-04-07T21:32:33.747Z,100052.53
2023-04-07T21:35:01.281Z,100055.88
2023-04-07T21:37:28.259Z,100059.34
2023-04-07T21:39:55.762Z,100058.50
2023-04-07T21:42:22.813Z,100057.56
2023-04-07T21:44:50.033Z,100060.22
2023-04-07T21:47:17.817Z,100047.06
2023-04-07T21:49:45.010Z,100040.94
2023-04-07T21:52:12.737Z,100029.59
2023-04-07T21:54:40.097Z,100043.94
2023-04-07T21:57:07.934Z,100044.84
2023-04-07T21:59:36.166Z,100039.59
2023-04-07T22:02:03.865Z,100046.75
2023-04-07T22:04:32.211Z,100040.69
2023-04-07T22:06:59.537Z,100044.16
2023-04-07T22:09:27.527Z,100050.16
2023-04-07T22:11:54.867Z,100051.94
2023-04-07T22:14:25.106Z,100054.63
2023-04-07T22:16:52.982Z,100057.09
2023-04-07T22:19:20.109Z,100051.78
2023-04-07T22:21:49.683Z,100044.84
2023-04-07T22:24:16.767Z,100049.13
2023-04-07T22:26:43.595Z,100047.44
2023-04-07T22:29:12.019Z,100039.56
2023-04-07T22:31:39.192Z,100049.19
2023-04-07T22:34:06.521Z,100046.59
2023-04-07T22:36:34.611Z,100042.34
2023-04-07T22:39:01.782Z,100052.00
2023-04-07T22:41:28.863Z,100050.25
2023-04-07T22:43:55.860Z,100050.25
2023-04-07T22:46:23.137Z,100044.16
2023-04-07T22:48:51.054Z,100045.91
2023-04-07T22:51:18.138Z,100042.44
2023-04-07T22:53:45.963Z,100038.88
2023-04-07T22:56:13.457Z,100038.97
2023-04-07T22:58:40.487Z,100031.22
2023-04-07T23:01:07.382Z,100031.31
2023-04-07T23:03:34.588Z,100030.28
2023-04-07T23:06:02.791Z,100032.00
2023-04-07T23:08:29.954Z,100023.19
2023-04-07T23:10:57.103Z,100031.97
2023-04-07T23:13:24.444Z,100030.19
2023-04-07T23:15:51.671Z,100025.00
2023-04-07T23:18:18.775Z,100018.81
2023-04-07T23:20:52.428Z,100025.16
2023-04-07T23:23:19.625Z,100018.06
2023-04-07T23:25:46.789Z,100013.59
2023-04-07T23:28:13.975Z,100017.91
2023-04-07T23:30:42.427Z,100012.69
2023-04-07T23:33:09.467Z,100012.63
2023-04-07T23:35:36.742Z,100012.59
2023-04-07T23:38:04.895Z,100015.19
2023-04-07T23:40:32.349Z,100006.31
2023-04-07T23:42:59.810Z,100008.06
2023-04-07T23:45:26.796Z,100007.16
2023-04-07T23:47:53.887Z,100014.16
2023-04-07T23:50:21.121Z,100004.47
2023-04-07T23:52:48.165Z,100006.22
2023-04-07T23:55:15.036Z,100012.50
2023-04-07T23:57:43.162Z,100008.97
